createdAt,value
2019-01-21T00:00:49.898Z,87.53
2019-01-21T00:01:49.813Z,87.32
2019-01-21T00:02:49.872Z,87.38
2019-01-21T00:03:49.794Z,87.21
2019-01-21T00:04:49.853Z,87.42
2019-01-21T00:05:49.773Z,87.32
2019-01-21T00:06:49.794Z,87.42
2019-01-21T00:07:49.764Z,87.28
2019-01-21T00:08:49.826Z,87.53
2019-01-21T00:09:49.724Z,87.28
2019-01-21T00:10:49.765Z,87.38
2019-01-21T00:11:49.705Z,87.53
2019-01-21T00:12:49.705Z,87.18
2019-01-21T00:13:49.765Z,87.21
2019-01-21T00:14:49.666Z,87.28
2019-01-21T00:15:49.780Z,87.63
2019-01-21T00:16:49.650Z,87.85
2019-01-21T00:17:49.677Z,88.02
2019-01-21T00:18:49.617Z,88.12
2019-01-21T00:19:49.669Z,87.81
2019-01-21T00:20:49.587Z,88.02
2019-01-21T00:21:49.608Z,87.42
2019-01-21T00:22:49.588Z,87.21
2019-01-21T00:23:49.560Z,87.32
2019-01-21T00:24:49.610Z,87.38
2019-01-21T00:25:49.542Z,87.38
2019-01-21T00:26:49.653Z,87.38
2019-01-21T00:27:49.539Z,87.42
2019-01-21T00:28:49.505Z,87.60
2019-01-21T00:29:49.491Z,87.49
2019-01-21T00:30:49.511Z,87.85
2019-01-21T00:31:49.481Z,87.85
2019-01-21T00:32:49.501Z,88.02
2019-01-21T00:33:49.525Z,88.02
2019-01-21T00:34:49.442Z,87.95
2019-01-21T00:35:49.462Z,88.44
2019-01-21T00:36:49.422Z,88.75
2019-01-21T00:37:49.444Z,88.48
2019-01-21T00:38:49.404Z,88.54
2019-01-21T00:39:49.445Z,88.54
2019-01-21T00:40:49.386Z,88.75
2019-01-21T00:41:49.465Z,89.32
2019-01-21T00:42:49.375Z,89.17
2019-01-21T00:43:49.413Z,88.96
2019-01-21T00:44:49.335Z,89.32
2019-01-21T00:45:49.336Z,88.86
2019-01-21T00:46:49.316Z,89.32
2019-01-21T00:47:49.428Z,89.28
2019-01-21T00:48:49.288Z,89.11
2019-01-21T00:49:49.298Z,88.75
2019-01-21T00:50:49.378Z,89.11
2019-01-21T00:51:49.258Z,88.96
2019-01-21T00:52:49.359Z,88.65
2019-01-21T00:53:49.227Z,87.85
2019-01-21T00:54:49.219Z,87.85
2019-01-21T00:55:49.310Z,87.81
2019-01-21T00:56:49.199Z,88.27
2019-01-21T00:57:49.291Z,88.16
2019-01-21T00:58:49.169Z,88.69
2019-01-21T00:59:49.160Z,88.44
2019-01-21T01:00:49.150Z,88.54
2019-01-21T01:01:49.220Z,89.22
2019-01-21T01:02:49.141Z,89.00
2019-01-21T01:03:49.152Z,89.00
2019-01-21T01:04:49.102Z,89.32
2019-01-21T01:05:49.195Z,88.27
2019-01-21T01:06:49.084Z,88.37
2019-01-21T01:07:49.182Z,88.23
2019-01-21T01:08:49.072Z,88.37
2019-01-21T01:09:49.064Z,88.37
2019-01-21T01:10:49.043Z,88.37
2019-01-21T01:11:49.104Z,88.48
2019-01-21T01:12:49.034Z,88.69
2019-01-21T01:13:49.035Z,89.53
2019-01-21T01:14:49.004Z,88.90
2019-01-21T01:15:48.995Z,89.32
2019-01-21T01:16:49.045Z,89.32
2019-01-21T01:17:48.986Z,88.90
2019-01-21T01:18:48.976Z,88.69
2019-01-21T01:19:48.947Z,88.79
2019-01-21T01:20:48.936Z,89.11
2019-01-21T01:21:48.977Z,89.32
2019-01-21T01:22:48.927Z,89.64
2019-01-21T01:23:49.017Z,88.90
2019-01-21T01:24:48.888Z,89.42
2019-01-21T01:25:48.878Z,89.11
2019-01-21T01:26:48.918Z,89.32
2019-01-21T01:27:48.858Z,88.69
2019-01-21T01:28:48.950Z,89.53
2019-01-21T01:29:48.839Z,88.37
2019-01-21T01:30:48.809Z,88.58
2019-01-21T01:31:48.860Z,89.22
2019-01-21T01:32:48.810Z,88.79
2019-01-21T01:33:48.891Z,88.90
2019-01-21T01:34:48.781Z,88.79
2019-01-21T01:35:55.342Z,89.22
2019-01-21T01:36:48.793Z,89.64
2019-01-21T01:37:48.752Z,89.53
2019-01-21T01:38:48.832Z,89.74
2019-01-21T01:39:48.723Z,89.32
2019-01-21T01:40:48.713Z,89.64
2019-01-21T01:41:48.703Z,89.84
2019-01-21T01:42:48.753Z,89.74
2019-01-21T01:43:48.683Z,89.74
2019-01-21T01:44:48.744Z,89.95
2019-01-21T01:45:48.664Z,89.84
2019-01-21T01:46:48.645Z,89.84
2019-01-21T01:47:48.747Z,89.95
2019-01-21T01:48:48.635Z,90.26
2019-01-21T01:49:49.706Z,90.26
2019-01-21T01:50:48.608Z,90.16
2019-01-21T01:51:48.597Z,90.16
2019-01-21T01:52:48.587Z,89.84
2019-01-21T01:53:48.596Z,89.64
2019-01-21T01:54:48.557Z,89.42
2019-01-21T01:55:48.588Z,89.11
2019-01-21T01:56:48.548Z,89.00
2019-01-21T01:57:48.570Z,89.53
2019-01-21T01:58:48.640Z,89.32
2019-01-21T01:59:48.499Z,89.70
2019-01-21T02:00:48.519Z,89.84
2019-01-21T02:01:48.463Z,89.64
2019-01-21T02:02:48.561Z,89.11
2019-01-21T02:03:48.470Z,88.58
2019-01-21T02:04:48.490Z,88.37
2019-01-21T02:05:48.430Z,88.02
2019-01-21T02:06:48.531Z,88.06
2019-01-21T02:07:48.501Z,88.06
2019-01-21T02:08:48.421Z,87.63
2019-01-21T02:09:48.432Z,87.53
2019-01-21T02:10:48.372Z,87.74
2019-01-21T02:11:48.472Z,87.63
2019-01-21T02:12:48.353Z,87.91
2019-01-21T02:13:48.464Z,87.95
2019-01-21T02:14:48.336Z,87.85
2019-01-21T02:15:48.444Z,87.49
2019-01-21T02:16:48.326Z,87.42
2019-01-21T02:17:52.207Z,87.38
2019-01-21T02:18:48.316Z,86.44
2019-01-21T02:19:48.316Z,85.70
2019-01-21T02:20:48.275Z,85.42
2019-01-21T02:21:48.355Z,85.91
2019-01-21T02:22:48.259Z,86.22
2019-01-21T02:23:48.256Z,86.02
2019-01-21T02:24:48.257Z,86.65
2019-01-21T02:25:48.217Z,87.49
2019-01-21T02:26:48.289Z,87.60
2019-01-21T02:27:48.198Z,87.38
2019-01-21T02:28:48.197Z,87.91
2019-01-21T02:29:48.198Z,87.49
2019-01-21T02:30:48.159Z,88.12
2019-01-21T02:31:48.229Z,87.63
2019-01-21T02:32:48.140Z,86.33
2019-01-21T02:33:48.141Z,86.02
2019-01-21T02:34:48.109Z,85.60
2019-01-21T02:35:48.200Z,85.60
2019-01-21T02:36:48.090Z,84.65
2019-01-21T02:37:48.130Z,85.28
2019-01-21T02:38:48.142Z,85.17
2019-01-21T02:39:48.065Z,85.38
2019-01-21T02:40:48.141Z,84.86
2019-01-21T02:41:48.033Z,85.60
2019-01-21T02:42:48.072Z,84.75
2019-01-21T02:43:48.083Z,84.86
2019-01-21T02:44:48.002Z,84.12
2019-01-21T02:45:48.073Z,84.65
2019-01-21T02:46:47.973Z,83.91
2019-01-21T02:47:48.004Z,83.59
2019-01-21T02:48:48.226Z,83.70
2019-01-21T02:49:47.944Z,83.91
2019-01-21T02:50:48.027Z,83.59
2019-01-21T02:51:47.928Z,84.01
2019-01-21T02:52:48.975Z,83.81
2019-01-21T02:53:47.916Z,84.23
2019-01-21T02:54:47.996Z,83.70
2019-01-21T02:55:47.888Z,83.49
2019-01-21T02:56:47.932Z,83.59
2019-01-21T02:57:47.867Z,82.65
2019-01-21T02:58:47.912Z,83.07
2019-01-21T02:59:47.838Z,83.81
2019-01-21T03:00:47.898Z,83.70
2019-01-21T03:01:47.810Z,83.81
2019-01-21T03:02:47.829Z,83.81
2019-01-21T03:03:47.809Z,84.01
2019-01-21T03:04:47.771Z,83.81
2019-01-21T03:05:47.844Z,84.23
2019-01-21T03:06:47.760Z,84.01
2019-01-21T03:07:47.770Z,83.91
2019-01-21T03:08:47.754Z,83.81
2019-01-21T03:09:47.732Z,83.49
2019-01-21T03:10:47.715Z,82.86
2019-01-21T03:11:47.742Z,82.97
2019-01-21T03:12:47.684Z,82.86
2019-01-21T03:13:47.722Z,83.39
2019-01-21T03:14:47.663Z,82.86
2019-01-21T03:15:47.713Z,83.17
2019-01-21T03:16:47.653Z,83.00
2019-01-21T03:17:48.674Z,82.97
2019-01-21T03:18:47.637Z,83.59
2019-01-21T03:19:47.684Z,83.70
2019-01-21T03:20:47.594Z,84.33
2019-01-21T03:21:47.625Z,84.33
2019-01-21T03:22:47.585Z,84.54
2019-01-21T03:23:47.616Z,84.44
2019-01-21T03:24:47.569Z,84.23
2019-01-21T03:25:47.556Z,84.54
2019-01-21T03:26:47.566Z,83.70
2019-01-21T03:27:47.529Z,83.59
2019-01-21T03:28:47.549Z,83.84
2019-01-21T03:29:47.507Z,83.81
2019-01-21T03:30:47.499Z,83.49
2019-01-21T03:31:47.495Z,83.70
2019-01-21T03:32:47.569Z,83.81
2019-01-21T03:33:47.480Z,84.16
2019-01-21T03:34:47.522Z,83.81
2019-01-21T03:35:47.480Z,83.59
2019-01-21T03:36:47.430Z,83.95
2019-01-21T03:37:47.558Z,84.12
2019-01-21T03:38:47.421Z,83.95
2019-01-21T03:39:47.440Z,84.69
2019-01-21T03:40:47.412Z,85.74
2019-01-21T03:41:47.371Z,85.91
2019-01-21T03:42:47.441Z,85.00
2019-01-21T03:43:47.373Z,85.53
2019-01-21T03:44:47.382Z,85.28
2019-01-21T03:45:47.323Z,85.70
2019-01-21T03:46:48.342Z,86.05
2019-01-21T03:47:47.312Z,85.74
2019-01-21T03:48:47.504Z,85.63
2019-01-21T03:49:47.274Z,85.70
2019-01-21T03:50:47.288Z,85.85
2019-01-21T03:51:47.254Z,85.95
2019-01-21T03:52:47.324Z,86.37
2019-01-21T03:53:47.235Z,87.00
2019-01-21T03:54:47.305Z,87.42
2019-01-21T03:55:47.206Z,87.21
2019-01-21T03:56:47.207Z,87.42
2019-01-21T03:57:47.206Z,87.11
2019-01-21T03:58:47.237Z,87.32
2019-01-21T03:59:47.186Z,86.90
2019-01-21T04:00:47.277Z,87.11
2019-01-21T04:01:47.160Z,87.21
2019-01-21T04:02:47.209Z,85.74
2019-01-21T04:03:47.128Z,85.74
2019-01-21T04:04:47.187Z,86.05
2019-01-21T04:05:47.109Z,86.05
2019-01-21T04:06:47.179Z,86.37
2019-01-21T04:07:47.090Z,86.37
2019-01-21T04:08:47.120Z,86.37
2019-01-21T04:09:47.079Z,86.30
2019-01-21T04:10:47.150Z,86.10
2019-01-21T04:11:47.041Z,86.16
2019-01-21T04:12:47.032Z,86.20
2019-01-21T04:13:47.052Z,86.37
2019-01-21T04:14:47.022Z,86.05
2019-01-21T04:15:47.095Z,86.05
2019-01-21T04:16:46.991Z,85.95
2019-01-21T04:17:46.975Z,85.21
2019-01-21T04:18:47.016Z,85.42
2019-01-21T04:19:47.002Z,85.42
2019-01-21T04:20:46.933Z,85.63
2019-01-21T04:21:47.007Z,85.85
2019-01-21T04:22:46.913Z,85.11
2019-01-21T04:23:46.904Z,85.42
2019-01-21T04:24:47.964Z,85.42
2019-01-21T04:25:46.875Z,85.11
2019-01-21T04:26:46.936Z,85.31
2019-01-21T04:27:46.863Z,84.89
2019-01-21T04:28:46.855Z,84.89
2019-01-21T04:29:46.899Z,84.69
2019-01-21T04:30:46.829Z,85.31
2019-01-21T04:31:46.888Z,84.89
2019-01-21T04:32:46.819Z,86.47
2019-01-21T04:33:46.799Z,87.00
2019-01-21T04:34:46.837Z,87.42
2019-01-21T04:35:46.778Z,87.21
2019-01-21T04:36:46.828Z,87.42
2019-01-21T04:37:46.758Z,87.53
2019-01-21T04:38:46.751Z,87.00
2019-01-21T04:39:46.749Z,87.63
2019-01-21T04:40:46.800Z,87.53
2019-01-21T04:41:46.710Z,87.53
2019-01-21T04:42:46.730Z,87.36
2019-01-21T04:43:46.800Z,87.46
2019-01-21T04:44:46.691Z,87.25
2019-01-21T04:45:46.770Z,87.57
2019-01-21T04:46:46.651Z,87.57
2019-01-21T04:47:46.671Z,87.74
2019-01-21T04:48:46.632Z,87.00
2019-01-21T04:49:46.642Z,87.53
2019-01-21T04:50:46.615Z,87.32
2019-01-21T04:51:46.643Z,87.53
2019-01-21T04:52:46.584Z,87.57
2019-01-21T04:53:46.683Z,87.36
2019-01-21T04:54:46.574Z,87.68
2019-01-21T04:55:46.619Z,87.46
2019-01-21T04:56:46.534Z,87.46
2019-01-21T04:57:46.554Z,87.46
2019-01-21T04:58:47.254Z,88.10
2019-01-21T04:59:46.522Z,87.46
2019-01-21T05:00:46.558Z,87.68
2019-01-21T05:01:46.482Z,87.25
2019-01-21T05:02:46.486Z,87.68
2019-01-21T05:03:46.456Z,87.88
2019-01-21T05:04:46.476Z,87.68
2019-01-21T05:05:46.508Z,87.99
2019-01-21T05:06:46.438Z,87.99
2019-01-21T05:07:46.539Z,88.10
2019-01-21T05:08:46.421Z,88.41
2019-01-21T05:09:46.420Z,88.20
2019-01-21T05:10:46.442Z,87.88
2019-01-21T05:11:46.379Z,87.78
2019-01-21T05:12:46.479Z,87.78
2019-01-21T05:13:46.363Z,87.36
2019-01-21T05:14:46.360Z,87.25
2019-01-21T05:15:46.379Z,86.94
2019-01-21T05:16:46.332Z,87.57
2019-01-21T05:17:47.340Z,87.57
2019-01-21T05:18:46.301Z,87.78
2019-01-21T05:19:46.317Z,87.36
2019-01-21T05:20:46.283Z,87.46
2019-01-21T05:21:46.293Z,87.25
2019-01-21T05:22:46.277Z,87.25
2019-01-21T05:23:46.325Z,87.46
2019-01-21T05:24:46.254Z,86.62
2019-01-21T05:25:46.262Z,87.15
2019-01-21T05:26:46.215Z,87.15
2019-01-21T05:27:46.296Z,87.53
2019-01-21T05:28:46.193Z,87.57
2019-01-21T05:29:46.274Z,87.68
2019-01-21T05:30:46.185Z,87.32
2019-01-21T05:31:47.196Z,87.57
2019-01-21T05:32:46.156Z,87.46
2019-01-21T05:33:46.209Z,87.36
2019-01-21T05:34:46.155Z,87.99
2019-01-21T05:35:46.109Z,87.88
2019-01-21T05:36:46.096Z,87.46
2019-01-21T05:37:46.177Z,87.88
2019-01-21T05:38:46.107Z,88.31
2019-01-21T05:39:46.168Z,88.41
2019-01-21T05:40:46.069Z,88.62
2019-01-21T05:41:46.158Z,88.62
2019-01-21T05:42:46.038Z,88.41
2019-01-21T05:43:46.089Z,87.78
2019-01-21T05:44:46.029Z,87.78
2019-01-21T05:45:46.030Z,86.83
2019-01-21T05:46:46.001Z,87.25
2019-01-21T05:47:46.071Z,87.04
2019-01-21T05:48:49.044Z,87.04
2019-01-21T05:49:46.050Z,87.36
2019-01-21T05:50:45.955Z,87.25
2019-01-21T05:51:45.941Z,86.94
2019-01-21T05:52:46.001Z,87.04
2019-01-21T05:53:45.922Z,87.25
2019-01-21T05:54:45.946Z,87.46
2019-01-21T05:55:45.914Z,88.10
2019-01-21T05:56:45.893Z,87.46
2019-01-21T05:57:45.875Z,87.25
2019-01-21T05:58:45.914Z,87.42
2019-01-21T05:59:45.864Z,87.57
2019-01-21T06:00:45.895Z,87.15
2019-01-21T06:01:45.914Z,86.62
2019-01-21T06:02:45.814Z,86.30
2019-01-21T06:03:45.844Z,86.30
2019-01-21T06:04:45.785Z,86.30
2019-01-21T06:05:45.832Z,85.57
2019-01-21T06:06:45.766Z,86.10
2019-01-21T06:07:45.820Z,86.52
2019-01-21T06:08:45.746Z,86.41
2019-01-21T06:09:45.758Z,86.41
2019-01-21T06:10:45.736Z,86.10
2019-01-21T06:11:45.796Z,86.52
2019-01-21T06:12:45.699Z,87.00
2019-01-21T06:13:45.737Z,87.15
2019-01-21T06:14:45.688Z,87.04
2019-01-21T06:15:45.725Z,87.25
2019-01-21T06:16:45.670Z,86.52
2019-01-21T06:17:45.659Z,86.72
2019-01-21T06:18:45.681Z,86.37
2019-01-21T06:19:45.634Z,86.90
2019-01-21T06:20:45.663Z,87.15
2019-01-21T06:21:45.622Z,87.46
2019-01-21T06:22:45.602Z,87.78
2019-01-21T06:23:45.610Z,86.83
2019-01-21T06:24:45.581Z,87.04
2019-01-21T06:25:45.602Z,87.04
2019-01-21T06:26:45.552Z,86.79
2019-01-21T06:27:45.543Z,87.25
2019-01-21T06:28:45.532Z,87.15
2019-01-21T06:29:45.623Z,87.04
2019-01-21T06:30:45.525Z,86.37
2019-01-21T06:31:45.562Z,87.32
2019-01-21T06:32:45.494Z,87.21
2019-01-21T06:33:45.504Z,87.00
2019-01-21T06:34:45.467Z,87.00
2019-01-21T06:35:45.574Z,87.15
2019-01-21T06:36:45.436Z,87.04
2019-01-21T06:37:45.465Z,87.25
2019-01-21T06:38:45.415Z,87.32
2019-01-21T06:39:45.505Z,87.21
2019-01-21T06:40:45.406Z,87.46
2019-01-21T06:41:45.456Z,87.68
2019-01-21T06:42:45.387Z,87.46
2019-01-21T06:43:45.357Z,87.46
2019-01-21T06:44:45.446Z,87.36
2019-01-21T06:45:45.350Z,87.53
2019-01-21T06:46:45.378Z,87.46
2019-01-21T06:47:45.330Z,87.57
2019-01-21T06:48:45.311Z,87.57
2019-01-21T06:49:45.378Z,87.25
2019-01-21T06:50:45.319Z,87.46
2019-01-21T06:51:45.321Z,87.15
2019-01-21T06:52:45.271Z,87.36
2019-01-21T06:53:45.262Z,87.68
2019-01-21T06:54:45.321Z,87.25
2019-01-21T06:55:45.251Z,87.68
2019-01-21T06:56:47.628Z,87.36
2019-01-21T06:57:45.212Z,87.68
2019-01-21T06:58:45.202Z,87.36
2019-01-21T06:59:46.282Z,87.68
2019-01-21T07:00:45.193Z,87.57
2019-01-21T07:01:45.194Z,87.78
2019-01-21T07:02:45.164Z,87.42
2019-01-21T07:03:45.154Z,87.68
2019-01-21T07:04:45.143Z,87.88
2019-01-21T07:05:45.213Z,87.68
2019-01-21T07:06:45.114Z,87.68
2019-01-21T07:07:45.205Z,87.68
2019-01-21T07:08:45.087Z,87.57
2019-01-21T07:09:45.136Z,87.42
2019-01-21T07:10:45.426Z,87.36
2019-01-21T07:11:45.276Z,87.36
2019-01-21T07:12:45.037Z,87.42
2019-01-21T07:13:45.108Z,86.83
2019-01-21T07:14:45.016Z,87.42
2019-01-21T07:15:45.088Z,87.46
2019-01-21T07:16:45.007Z,87.53
2019-01-21T07:17:45.079Z,87.42
2019-01-21T07:18:45.030Z,86.05
2019-01-21T07:19:46.309Z,87.00
2019-01-21T07:20:45.040Z,87.11
2019-01-21T07:21:44.950Z,87.00
2019-01-21T07:22:45.021Z,87.04
2019-01-21T07:23:45.156Z,87.04
2019-01-21T07:24:44.947Z,86.62
2019-01-21T07:25:44.968Z,87.00
2019-01-21T07:26:44.991Z,87.00
2019-01-21T07:27:44.882Z,87.53
2019-01-21T07:28:44.932Z,87.32
2019-01-21T07:29:44.932Z,87.32
2019-01-21T07:30:44.863Z,87.42
2019-01-21T07:31:44.935Z,87.42
2019-01-21T07:32:44.833Z,87.63
2019-01-21T07:33:45.043Z,87.32
2019-01-21T07:34:44.803Z,86.90
2019-01-21T07:35:44.855Z,87.42
2019-01-21T07:36:44.785Z,87.32
2019-01-21T07:37:44.836Z,86.90
2019-01-21T07:38:44.836Z,87.21
2019-01-21T07:39:45.772Z,87.32
2019-01-21T07:40:45.023Z,86.58
2019-01-21T07:41:44.805Z,86.05
2019-01-21T07:42:44.717Z,86.47
2019-01-21T07:43:44.748Z,87.32
2019-01-21T07:44:44.689Z,87.11
2019-01-21T07:45:44.697Z,86.86
2019-01-21T07:46:44.748Z,87.00
2019-01-21T07:47:44.660Z,86.96
2019-01-21T07:48:45.831Z,87.38
2019-01-21T07:49:44.640Z,87.00
2019-01-21T07:50:44.639Z,87.38
2019-01-21T07:51:44.689Z,87.28
2019-01-21T07:52:44.714Z,86.86
2019-01-21T07:53:44.801Z,86.90
2019-01-21T07:54:44.580Z,87.53
2019-01-21T07:55:44.583Z,86.65
2019-01-21T07:56:44.561Z,86.22
2019-01-21T07:57:44.601Z,86.02
2019-01-21T07:58:44.542Z,86.27
2019-01-21T07:59:44.632Z,86.47
2019-01-21T08:00:44.552Z,86.47
2019-01-21T08:01:44.573Z,87.07
2019-01-21T08:02:44.505Z,86.90
2019-01-21T08:03:44.603Z,86.79
2019-01-21T08:04:44.484Z,86.58
2019-01-21T08:05:44.545Z,87.28
2019-01-21T08:06:45.349Z,87.07
2019-01-21T08:07:44.475Z,86.12
2019-01-21T08:08:44.435Z,86.58
2019-01-21T08:09:44.516Z,86.16
2019-01-21T08:10:44.416Z,85.91
2019-01-21T08:11:44.420Z,85.60
2019-01-21T08:12:44.417Z,85.85
2019-01-21T08:13:44.377Z,85.38
2019-01-21T08:14:44.448Z,85.17
2019-01-21T08:15:44.357Z,86.12
2019-01-21T08:16:44.368Z,86.33
2019-01-21T08:17:44.348Z,86.33
2019-01-21T08:18:44.309Z,86.44
2019-01-21T08:19:44.389Z,86.47
2019-01-21T08:20:44.299Z,86.76
2019-01-21T08:21:44.299Z,86.96
2019-01-21T08:22:44.290Z,87.18
2019-01-21T08:23:44.264Z,86.12
2019-01-21T08:24:44.329Z,86.44
2019-01-21T08:25:44.241Z,86.12
2019-01-21T08:26:44.312Z,86.08
2019-01-21T08:27:44.223Z,85.91
2019-01-21T08:28:44.292Z,85.80
2019-01-21T08:29:44.195Z,85.66
2019-01-21T08:30:44.252Z,85.38
2019-01-21T08:31:44.182Z,85.66
2019-01-21T08:32:44.183Z,84.86
2019-01-21T08:33:44.243Z,86.02
2019-01-21T08:34:44.196Z,84.82
2019-01-21T08:35:44.174Z,84.82
2019-01-21T08:36:44.144Z,84.86
2019-01-21T08:37:44.117Z,85.80
2019-01-21T08:38:44.104Z,84.82
2019-01-21T08:39:44.145Z,85.38
2019-01-21T08:40:44.085Z,85.28
2019-01-21T08:41:44.875Z,85.28
2019-01-21T08:42:44.066Z,85.77
2019-01-21T08:43:44.057Z,85.91
2019-01-21T08:44:44.087Z,85.66
2019-01-21T08:45:44.026Z,85.55
2019-01-21T08:46:44.071Z,84.82
2019-01-21T08:47:44.008Z,85.77
2019-01-21T08:48:43.999Z,85.66
2019-01-21T08:49:43.989Z,84.71
2019-01-21T08:50:43.991Z,84.82
2019-01-21T08:51:43.969Z,85.45
2019-01-21T08:52:44.030Z,85.66
2019-01-21T08:53:43.940Z,85.52
2019-01-21T08:54:43.920Z,85.52
2019-01-21T08:55:43.941Z,85.62
2019-01-21T08:56:43.922Z,85.31
2019-01-21T08:57:43.993Z,84.89
2019-01-21T08:58:43.884Z,84.47
2019-01-21T08:59:43.873Z,84.15
2019-01-21T09:00:43.871Z,84.47
2019-01-21T09:01:43.882Z,84.36
2019-01-21T09:02:43.833Z,84.89
2019-01-21T09:03:43.873Z,84.78
2019-01-21T09:04:43.813Z,84.57
2019-01-21T09:05:43.903Z,84.36
2019-01-21T09:06:43.814Z,85.37
2019-01-21T09:07:43.872Z,84.15
2019-01-21T09:08:43.774Z,83.90
2019-01-21T09:09:43.786Z,83.59
2019-01-21T09:10:43.755Z,83.80
2019-01-21T09:11:43.865Z,84.36
2019-01-21T09:12:43.737Z,84.95
2019-01-21T09:13:43.758Z,84.32
2019-01-21T09:14:43.746Z,83.69
2019-01-21T09:15:43.708Z,83.69
2019-01-21T09:16:43.726Z,83.69
2019-01-21T09:17:43.727Z,83.69
2019-01-21T09:18:43.669Z,83.80
2019-01-21T09:19:43.769Z,84.22
2019-01-21T09:20:43.649Z,83.80
2019-01-21T09:21:43.639Z,83.69
2019-01-21T09:22:43.659Z,83.54
2019-01-21T09:23:43.620Z,84.08
2019-01-21T09:24:43.698Z,83.54
2019-01-21T09:25:43.592Z,83.34
2019-01-21T09:26:43.590Z,83.65
2019-01-21T09:27:43.572Z,84.03
2019-01-21T09:28:43.671Z,83.51
2019-01-21T09:29:43.552Z,82.81
2019-01-21T09:30:43.621Z,82.50
2019-01-21T09:31:43.532Z,82.60
2019-01-21T09:32:43.510Z,83.65
2019-01-21T09:33:43.612Z,82.81
2019-01-21T09:34:43.484Z,83.13
2019-01-21T09:35:43.543Z,83.02
2019-01-21T09:36:43.477Z,83.54
2019-01-21T09:37:43.444Z,84.03
2019-01-21T09:38:43.444Z,83.65
2019-01-21T09:39:43.516Z,83.72
2019-01-21T09:40:43.416Z,83.54
2019-01-21T09:41:43.543Z,82.71
2019-01-21T09:42:43.406Z,82.88
2019-01-21T09:43:43.386Z,82.88
2019-01-21T09:44:43.467Z,83.40
2019-01-21T09:45:43.368Z,82.35
2019-01-21T09:46:43.447Z,82.35
2019-01-21T09:47:43.348Z,82.67
2019-01-21T09:48:43.339Z,82.67
2019-01-21T09:49:43.827Z,82.46
2019-01-21T09:50:43.372Z,82.67
2019-01-21T09:51:43.309Z,82.32
2019-01-21T09:52:43.300Z,82.95
2019-01-21T09:53:43.283Z,82.84
2019-01-21T09:54:43.280Z,82.10
2019-01-21T09:55:43.260Z,82.63
2019-01-21T09:56:43.320Z,83.47
2019-01-21T09:57:43.241Z,82.81
2019-01-21T09:58:43.312Z,82.63
2019-01-21T09:59:43.213Z,81.96
2019-01-21T10:00:43.242Z,81.58
2019-01-21T10:01:43.212Z,82.49
2019-01-21T10:02:43.282Z,82.17
2019-01-21T10:03:43.204Z,81.86
2019-01-21T10:04:43.213Z,81.65
2019-01-21T10:05:43.164Z,82.28
2019-01-21T10:06:45.234Z,81.44
2019-01-21T10:07:43.104Z,82.39
2019-01-21T10:08:43.184Z,81.86
2019-01-21T10:09:43.095Z,82.39
2019-01-21T10:10:43.115Z,82.17
2019-01-21T10:11:43.075Z,82.07
2019-01-21T10:12:43.116Z,82.07
2019-01-21T10:13:43.066Z,81.86
2019-01-21T10:14:43.087Z,81.40
2019-01-21T10:15:43.027Z,82.03
2019-01-21T10:16:43.018Z,82.49
2019-01-21T10:17:43.030Z,81.51
2019-01-21T10:18:43.058Z,80.46
2019-01-21T10:19:42.988Z,79.41
2019-01-21T10:20:42.998Z,79.93
2019-01-21T10:21:42.972Z,79.83
2019-01-21T10:22:43.089Z,80.57
2019-01-21T10:23:42.950Z,80.57
2019-01-21T10:24:42.982Z,80.46
2019-01-21T10:25:42.940Z,80.88
2019-01-21T10:26:43.012Z,79.72
2019-01-21T10:27:43.022Z,79.52
2019-01-21T10:28:42.909Z,80.32
2019-01-21T10:29:42.912Z,80.11
2019-01-21T10:30:42.872Z,79.20
2019-01-21T10:31:42.954Z,78.15
2019-01-21T10:32:42.873Z,78.99
2019-01-21T10:33:42.844Z,78.85
2019-01-21T10:34:42.853Z,79.27
2019-01-21T10:35:42.824Z,79.20
2019-01-21T10:36:42.895Z,79.69
2019-01-21T10:37:42.827Z,80.21
2019-01-21T10:38:42.786Z,80.74
2019-01-21T10:39:42.765Z,79.38
2019-01-21T10:40:42.856Z,79.16
2019-01-21T10:41:42.757Z,78.43
2019-01-21T10:42:42.840Z,78.53
2019-01-21T10:43:42.737Z,79.69
2019-01-21T10:44:42.717Z,80.32
2019-01-21T10:45:42.798Z,80.91
2019-01-21T10:46:42.688Z,80.18
2019-01-21T10:47:42.787Z,78.39
2019-01-21T10:48:42.668Z,77.03
2019-01-21T10:49:42.659Z,78.50
2019-01-21T10:50:42.649Z,78.39
2019-01-21T10:51:42.700Z,79.02
2019-01-21T10:52:42.627Z,79.83
2019-01-21T10:53:42.670Z,79.51
2019-01-21T10:54:42.631Z,79.61
2019-01-21T10:55:42.672Z,77.10
2019-01-21T10:56:42.602Z,76.89
2019-01-21T10:57:42.651Z,76.57
2019-01-21T10:58:42.581Z,77.00
2019-01-21T10:59:42.642Z,76.16
2019-01-21T11:00:42.553Z,75.53
2019-01-21T11:01:42.583Z,75.53
2019-01-21T11:02:42.533Z,75.32
2019-01-21T11:03:42.623Z,74.90
2019-01-21T11:04:42.504Z,76.57
2019-01-21T11:05:42.563Z,77.00
2019-01-21T11:06:42.484Z,77.00
2019-01-21T11:07:42.544Z,76.16
2019-01-21T11:08:42.455Z,75.18
2019-01-21T11:09:42.526Z,75.60
2019-01-21T11:10:42.435Z,75.60
2019-01-21T11:11:42.429Z,72.28
2019-01-21T11:12:42.416Z,71.13
2019-01-21T11:13:42.500Z,71.97
2019-01-21T11:14:42.397Z,71.23
2019-01-21T11:15:42.438Z,73.19
2019-01-21T11:16:42.369Z,73.82
2019-01-21T11:17:42.418Z,71.73
2019-01-21T11:18:42.350Z,71.03
2019-01-21T11:19:42.411Z,70.99
2019-01-21T11:20:42.332Z,72.04
2019-01-21T11:21:42.349Z,72.07
2019-01-21T11:22:42.310Z,72.67
2019-01-21T11:23:42.401Z,73.09
2019-01-21T11:24:42.270Z,72.35
2019-01-21T11:25:42.313Z,71.51
2019-01-21T11:26:42.252Z,71.03
2019-01-21T11:27:42.261Z,72.56
2019-01-21T11:28:42.525Z,72.04
2019-01-21T11:29:42.292Z,70.99
2019-01-21T11:30:42.214Z,70.89
2019-01-21T11:31:42.223Z,70.89
2019-01-21T11:32:42.214Z,70.99
2019-01-21T11:33:42.175Z,71.31
2019-01-21T11:34:42.228Z,70.05
2019-01-21T11:35:42.165Z,69.00
2019-01-21T11:36:42.264Z,67.64
2019-01-21T11:37:42.155Z,67.43
2019-01-21T11:38:42.134Z,67.43
2019-01-21T11:39:42.106Z,67.12
2019-01-21T11:40:42.138Z,67.75
2019-01-21T11:41:42.097Z,67.61
2019-01-21T11:42:43.147Z,67.72
2019-01-21T11:43:42.067Z,67.30
2019-01-21T11:44:42.068Z,67.50
2019-01-21T11:45:42.078Z,69.07
2019-01-21T11:46:42.039Z,69.39
2019-01-21T11:47:42.159Z,69.49
2019-01-21T11:48:43.181Z,70.75
2019-01-21T11:49:42.009Z,69.70
2019-01-21T11:50:42.000Z,69.92
2019-01-21T11:51:42.080Z,69.92
2019-01-21T11:52:41.990Z,70.02
2019-01-21T11:53:42.022Z,70.40
2019-01-21T11:54:41.953Z,69.81
2019-01-21T11:55:42.051Z,68.45
2019-01-21T11:56:42.142Z,69.70
2019-01-21T11:57:42.034Z,71.77
2019-01-21T11:58:41.914Z,69.57
2019-01-21T11:59:43.120Z,67.37
2019-01-21T12:00:41.893Z,68.63
2019-01-21T12:01:41.954Z,67.90
2019-01-21T12:02:41.886Z,68.52
2019-01-21T12:03:41.894Z,69.15
2019-01-21T12:04:41.834Z,69.22
2019-01-21T12:05:41.825Z,68.00
2019-01-21T12:06:41.815Z,65.80
2019-01-21T12:07:41.906Z,65.77
2019-01-21T12:08:41.809Z,66.43
2019-01-21T12:09:41.796Z,65.59
2019-01-21T12:10:41.766Z,66.53
2019-01-21T12:11:41.747Z,67.65
2019-01-21T12:12:41.807Z,65.70
2019-01-21T12:13:41.758Z,65.28
2019-01-21T12:14:41.849Z,65.38
2019-01-21T12:15:41.729Z,64.97
2019-01-21T12:16:41.718Z,65.80
2019-01-21T12:17:41.699Z,68.21
2019-01-21T12:18:41.760Z,68.31
2019-01-21T12:19:41.680Z,69.78
2019-01-21T12:20:41.750Z,70.40
2019-01-21T12:21:41.660Z,70.93
2019-01-21T12:22:41.652Z,70.90
2019-01-21T12:23:41.650Z,69.64
2019-01-21T12:24:41.722Z,69.36
2019-01-21T12:25:41.602Z,67.58
2019-01-21T12:26:41.651Z,66.96
2019-01-21T12:27:41.592Z,69.46
2019-01-21T12:28:41.621Z,69.15
2019-01-21T12:29:41.573Z,68.73
2019-01-21T12:30:41.632Z,67.68
2019-01-21T12:31:41.556Z,69.99
2019-01-21T12:32:41.566Z,69.57
2019-01-21T12:33:41.574Z,68.84
2019-01-21T12:34:41.515Z,69.99
2019-01-21T12:35:41.565Z,70.72
2019-01-21T12:36:41.488Z,71.03
2019-01-21T12:37:41.495Z,70.37
2019-01-21T12:38:41.486Z,69.85
2019-01-21T12:39:41.446Z,69.33
2019-01-21T12:40:41.506Z,68.91
2019-01-21T12:41:41.458Z,67.65
2019-01-21T12:42:41.437Z,68.28
2019-01-21T12:43:41.418Z,67.90
2019-01-21T12:44:41.401Z,67.86
2019-01-21T12:45:41.388Z,65.91
2019-01-21T12:46:41.409Z,65.59
2019-01-21T12:47:41.360Z,67.55
2019-01-21T12:48:41.390Z,67.34
2019-01-21T12:49:41.351Z,68.70
2019-01-21T12:50:41.332Z,67.55
2019-01-21T12:51:41.362Z,67.65
2019-01-21T12:52:41.312Z,68.38